Manacor, Spain
Current Conditions -  °F | °C
As of 2:00 AM on Saturday 29 Nov 2014 (Local Time) from LEPA Reporting Station
Few Clouds Few Clouds  
Wind Chill: 61°   Ceiling: Unl
Heat Index: 61°   Visibility: 6mi
Dew Point: 59°   Wind: 1mph
Humidity: 94%   Direction: 130°SE
Pressure: 29.41"   Gusts: NA
Location:  39.57°N, 3.2°E
Report Text: LEPA 290100Z 13001KT 9999 FEW015 16/15 Q0996 NOSIG
Loading
Personal Weather Stations






























Interactive Weather Map New forecast layout! Learn more

10-Day Weather Forecast

Advertisements
Track Severe Weather on mobile